Terminal Aerodrome Forecast
Issued by NWS Cleveland, OH

Home | Current Version | Previous Version | Text Only | Print | Product List | Glossary Off
Versions: 1 2 3 4 5 6 7 8 9 10 11 12 13 14 15 16 17 18

000
FTUS41 KCLE 282300 RRA
TAFMFD
TAF
KMFD 282342Z 2900/2924 15010KT P6SM BKN250
     FM290400 15005KT P6SM OVC120
     FM291100 15014G22KT P6SM OVC060
     FM291300 16015G25KT 6SM BR SCT012 OVC050
      TEMPO 2913/2915 5SM -FZRA BR OVC012
     FM291500 18015G25KT 4SM -FZRA BR OVC012
      TEMPO 2915/2918 2SM -FZRASNPL BR OVC008
     FM291800 22010G20KT 1 1/2SM -RA BR OVC007
     FM292100 22010G20KT 1 1/2SM -SN BR OVC007
     FM292300 27010G20KT 1 1/2SM -SN BR OVC007=

USA.gov is the U.S. government's official web portal to all federal, state and local government web resources and services.